Time;durP1;ratioP1;P1;durP2;ratioP2;P2;SDS_P1;SDS_P2;PMS_P1;PMS_P2;Temp;Humidity;BMP_temperature;BMP_pressure;BME280_temperature;BME280_humidity;BME280_pressure;Samples;Min_cycle;Max_cycle;Signal;HPM_P1;HPM_P2
2021/05/28 00:01:40;;;;;;;8.38;3.83;;;;;;;;;;4879496;29;20445;-80
2021/05/28 00:04:06;;;;;;;8.73;3.67;;;;;;;;;;4879652;29;20462;-78
2021/05/28 00:06:33;;;;;;;8.18;3.60;;;;;;;;;;4879691;29;20029;-80
2021/05/28 00:08:59;;;;;;;8.63;3.42;;;;;;;;;;4879623;29;20482;-74
2021/05/28 00:11:25;;;;;;;14.45;4.00;;;;;;;;;;4879668;29;20549;-80
2021/05/28 00:13:51;;;;;;;11.35;4.15;;;;;;;;;;4879683;29;20044;-76
2021/05/28 00:16:17;;;;;;;8.93;3.83;;;;;;;;;;4879573;29;20032;-77
2021/05/28 00:18:43;;;;;;;8.32;3.17;;;;;;;;;;4879535;29;20081;-74
2021/05/28 00:21:09;;;;;;;9.48;3.00;;;;;;;;;;4879672;29;20104;-81
2021/05/28 00:23:35;;;;;;;7.78;3.38;;;;;;;;;;4878041;29;20037;-74
2021/05/28 00:26:01;;;;;;;6.47;2.60;;;;;;;;;;4879380;29;20057;-62
2021/05/28 00:28:28;;;;;;;4.68;1.95;;;;;;;;;;4879446;29;20515;-79
2021/05/28 00:30:54;;;;;;;9.07;2.05;;;;;;;;;;4879191;29;20073;-81
2021/05/28 00:33:20;;;;;;;3.65;1.92;;;;;;;;;;4879421;29;20124;-74
2021/05/28 00:35:46;;;;;;;5.97;2.10;;;;;;;;;;4879575;29;20057;-81
2021/05/28 00:38:12;;;;;;;4.22;1.65;;;;;;;;;;4879274;29;20029;-80
2021/05/28 00:40:38;;;;;;;4.05;2.08;;;;;;;;;;4879445;29;20056;-79
2021/05/28 00:43:04;;;;;;;5.82;1.67;;;;;;;;;;4879577;29;20052;-82
2021/05/28 00:45:30;;;;;;;4.13;1.95;;;;;;;;;;4879039;29;20029;-80
2021/05/28 00:47:56;;;;;;;5.63;1.92;;;;;;;;;;4879230;29;20033;-82
2021/05/28 00:50:23;;;;;;;8.43;2.20;;;;;;;;;;4879016;29;20061;-81
2021/05/28 00:52:49;;;;;;;6.28;2.00;;;;;;;;;;4878885;29;20033;-77
2021/05/28 00:55:15;;;;;;;3.92;1.90;;;;;;;;;;4878826;29;20029;-78
2021/05/28 00:57:42;;;;;;;6.60;1.98;;;;;;;;;;4878719;29;20493;-82
2021/05/28 01:00:08;;;;;;;6.43;1.85;;;;;;;;;;4878471;29;20464;-83
2021/05/28 01:02:34;;;;;;;5.40;1.85;;;;;;;;;;4878771;29;20041;-81
2021/05/28 01:05:00;;;;;;;2.45;1.58;;;;;;;;;;4878622;29;20104;-82
2021/05/28 01:07:26;;;;;;;5.15;1.70;;;;;;;;;;4878847;29;20033;-82
2021/05/28 01:09:52;;;;;;;4.38;1.67;;;;;;;;;;4878531;29;20809;-81
2021/05/28 01:12:18;;;;;;;5.47;1.75;;;;;;;;;;4878716;29;20056;-80
2021/05/28 01:14:45;;;;;;;3.97;1.52;;;;;;;;;;4878740;29;20473;-84
2021/05/28 01:17:11;;;;;;;4.22;1.67;;;;;;;;;;4878416;29;20029;-81
2021/05/28 01:19:37;;;;;;;3.60;1.60;;;;;;;;;;4878403;29;20025;-82
2021/05/28 01:22:04;;;;;;;4.60;1.42;;;;;;;;;;4878634;29;20044;-65
2021/05/28 01:24:30;;;;;;;4.45;1.65;;;;;;;;;;4878080;29;20056;-83
2021/05/28 01:26:57;;;;;;;4.05;1.45;;;;;;;;;;4878343;29;20116;-84
2021/05/28 01:29:23;;;;;;;3.70;1.48;;;;;;;;;;4878419;29;20478;-83
2021/05/28 01:31:49;;;;;;;5.50;1.65;;;;;;;;;;4878274;29;20037;-84
2021/05/28 01:34:15;;;;;;;4.95;1.60;;;;;;;;;;4877944;29;20029;-77
2021/05/28 01:36:41;;;;;;;3.25;1.35;;;;;;;;;;4878013;29;20045;-75
2021/05/28 01:39:08;;;;;;;3.45;1.40;;;;;;;;;;4877954;29;20045;-76
2021/05/28 01:41:34;;;;;;;3.28;1.33;;;;;;;;;;4878383;29;20040;-84
2021/05/28 01:44:00;;;;;;;4.55;1.45;;;;;;;;;;4878182;29;20025;-78
2021/05/28 01:46:28;;;;;;;5.30;1.38;;;;;;;;;;4877963;29;20072;-84
2021/05/28 01:48:55;;;;;;;6.15;1.58;;;;;;;;;;4878018;29;20051;-81
2021/05/28 01:51:21;;;;;;;2.40;1.30;;;;;;;;;;4878047;29;20025;-84
2021/05/28 01:53:47;;;;;;;2.90;1.40;;;;;;;;;;4878416;29;20037;-84
2021/05/28 01:56:13;;;;;;;4.22;1.50;;;;;;;;;;4877915;29;20044;-83
2021/05/28 01:58:39;;;;;;;4.05;1.45;;;;;;;;;;4878243;29;20037;-83
2021/05/28 02:01:05;;;;;;;4.88;1.40;;;;;;;;;;4878251;29;20032;-80
2021/05/28 02:03:31;;;;;;;6.05;1.42;;;;;;;;;;4878304;29;20032;-83
2021/05/28 02:05:57;;;;;;;4.22;1.40;;;;;;;;;;4877943;29;20037;-83
2021/05/28 02:08:24;;;;;;;3.55;1.55;;;;;;;;;;4877932;29;20029;-82
2021/05/28 02:10:50;;;;;;;8.00;1.88;;;;;;;;;;4878024;29;20502;-76
2021/05/28 02:13:16;;;;;;;4.10;1.77;;;;;;;;;;4878062;29;20398;-81
2021/05/28 02:15:42;;;;;;;3.72;1.50;;;;;;;;;;4877762;29;20029;-83
2021/05/28 02:18:08;;;;;;;6.40;1.30;;;;;;;;;;4877581;29;20033;-80
2021/05/28 02:20:34;;;;;;;4.82;1.60;;;;;;;;;;4877389;29;20021;-83
2021/05/28 02:23:01;;;;;;;7.53;1.50;;;;;;;;;;4877676;29;20358;-83
2021/05/28 02:25:27;;;;;;;5.47;1.30;;;;;;;;;;4877439;29;20132;-75
2021/05/28 02:27:53;;;;;;;3.90;1.40;;;;;;;;;;4877751;29;20029;-79
2021/05/28 02:30:19;;;;;;;3.33;1.23;;;;;;;;;;4877541;29;20039;-83
2021/05/28 02:32:45;;;;;;;4.85;1.27;;;;;;;;;;4877421;29;20390;-83
2021/05/28 02:35:12;;;;;;;3.05;1.30;;;;;;;;;;4877292;29;20017;-82
2021/05/28 02:37:38;;;;;;;3.85;2.08;;;;;;;;;;4877782;29;20025;-82
2021/05/28 02:40:05;;;;;;;4.50;1.48;;;;;;;;;;4877431;29;20029;-83
2021/05/28 02:42:31;;;;;;;4.65;1.50;;;;;;;;;;4877555;29;20037;-83
2021/05/28 02:44:57;;;;;;;7.97;1.40;;;;;;;;;;4877528;29;20033;-82
2021/05/28 02:47:23;;;;;;;3.38;1.10;;;;;;;;;;4879749;29;20053;-83
2021/05/28 02:49:50;;;;;;;3.22;1.10;;;;;;;;;;4881521;29;20033;-83
2021/05/28 02:52:16;;;;;;;4.90;0.90;;;;;;;;;;4881000;29;20540;-66
2021/05/28 02:54:43;;;;;;;2.75;0.90;;;;;;;;;;4880983;29;20084;-76
2021/05/28 02:57:09;;;;;;;3.75;1.25;;;;;;;;;;4881442;29;20029;-83
2021/05/28 02:59:35;;;;;;;4.28;1.13;;;;;;;;;;4881567;29;20029;-81
2021/05/28 03:02:02;;;;;;;4.72;1.00;;;;;;;;;;4881216;29;20029;-82
2021/05/28 03:04:28;;;;;;;4.93;1.10;;;;;;;;;;4880678;29;20433;-80
2021/05/28 03:06:54;;;;;;;3.50;1.00;;;;;;;;;;4880556;29;20033;-80
2021/05/28 03:09:20;;;;;;;3.13;1.20;;;;;;;;;;4880972;29;20056;-83
2021/05/28 03:11:46;;;;;;;2.92;1.42;;;;;;;;;;4880435;29;20037;-83
2021/05/28 03:14:12;;;;;;;4.97;1.40;;;;;;;;;;4880885;29;20487;-80
2021/05/28 03:16:38;;;;;;;3.90;1.38;;;;;;;;;;4880689;29;20029;-75
2021/05/28 03:19:16;;;;;;;2.92;1.05;;;;;;;;;;4880559;29;20025;-66
2021/05/28 03:24:27;;;;;;;4.28;1.20;;;;;;;;;;4880500;29;20091;-71
2021/05/28 03:26:53;;;;;;;4.07;1.27;;;;;;;;;;4880845;29;20033;-79
2021/05/28 03:29:19;;;;;;;7.75;1.20;;;;;;;;;;4880509;29;20164;-84
2021/05/28 03:31:45;;;;;;;5.25;1.23;;;;;;;;;;4880551;29;20036;-84
2021/05/28 03:34:11;;;;;;;2.45;1.30;;;;;;;;;;4880284;29;20029;-76
2021/05/28 03:36:37;;;;;;;6.18;1.80;;;;;;;;;;4880316;29;20052;-79
2021/05/28 03:39:04;;;;;;;8.95;2.63;;;;;;;;;;4880172;29;20080;-79
2021/05/28 03:41:30;;;;;;;5.28;1.83;;;;;;;;;;4880217;29;20565;-82
2021/05/28 03:43:56;;;;;;;5.60;1.75;;;;;;;;;;4880410;29;20033;-76
2021/05/28 03:46:23;;;;;;;3.95;1.90;;;;;;;;;;4880003;29;20062;-81
2021/05/28 03:48:49;;;;;;;6.78;2.13;;;;;;;;;;4880036;29;20434;-84
2021/05/28 03:51:15;;;;;;;7.85;2.03;;;;;;;;;;4880166;29;20036;-82
2021/05/28 03:53:41;;;;;;;3.72;1.80;;;;;;;;;;4880207;29;20071;-83
2021/05/28 03:56:07;;;;;;;6.13;2.03;;;;;;;;;;4880369;29;20026;-76
2021/05/28 03:58:33;;;;;;;5.30;2.00;;;;;;;;;;4880026;29;20029;-84
2021/05/28 04:00:59;;;;;;;6.50;2.10;;;;;;;;;;4880478;29;20394;-86
2021/05/28 04:03:25;;;;;;;6.50;1.83;;;;;;;;;;4880163;29;20052;-81
2021/05/28 04:05:51;;;;;;;3.97;1.98;;;;;;;;;;4879788;29;20100;-84
2021/05/28 04:08:17;;;;;;;5.68;1.85;;;;;;;;;;4879606;29;20047;-83
2021/05/28 04:10:43;;;;;;;5.78;2.10;;;;;;;;;;4879824;29;20033;-64
2021/05/28 04:13:10;;;;;;;7.38;2.55;;;;;;;;;;4879541;29;20041;-75
2021/05/28 04:15:36;;;;;;;5.97;1.92;;;;;;;;;;4879587;29;20021;-80
2021/05/28 04:18:02;;;;;;;6.32;2.17;;;;;;;;;;4879464;29;20036;-79
2021/05/28 04:20:28;;;;;;;6.60;2.08;;;;;;;;;;4879503;29;20029;-78
2021/05/28 04:22:54;;;;;;;5.80;2.00;;;;;;;;;;4879600;29;20036;-75
2021/05/28 04:25:20;;;;;;;6.47;2.28;;;;;;;;;;4879001;29;20057;-71
2021/05/28 04:27:46;;;;;;;4.72;2.00;;;;;;;;;;4879362;29;20504;-74
2021/05/28 04:30:12;;;;;;;5.55;1.60;;;;;;;;;;4879343;29;20108;-74
2021/05/28 04:32:39;;;;;;;7.38;2.10;;;;;;;;;;4879161;29;20119;-80
2021/05/28 04:35:05;;;;;;;3.78;1.60;;;;;;;;;;4879364;29;20044;-77
2021/05/28 04:37:31;;;;;;;4.30;1.65;;;;;;;;;;4879098;29;20021;-77
2021/05/28 04:39:57;;;;;;;5.63;1.70;;;;;;;;;;4878906;29;20109;-83
2021/05/28 04:42:23;;;;;;;3.42;1.65;;;;;;;;;;4879132;29;20036;-79
2021/05/28 04:44:49;;;;;;;6.78;1.40;;;;;;;;;;4876529;29;20029;-79
2021/05/28 04:47:15;;;;;;;4.43;2.10;;;;;;;;;;4875038;29;20659;-82
2021/05/28 04:49:41;;;;;;;5.28;2.60;;;;;;;;;;4875299;29;20029;-81
2021/05/28 04:52:07;;;;;;;6.10;2.72;;;;;;;;;;4874904;29;20132;-82
2021/05/28 04:54:34;;;;;;;7.57;2.40;;;;;;;;;;4874405;29;20032;-76
2021/05/28 04:57:00;;;;;;;9.63;3.90;;;;;;;;;;4878593;29;20033;-82
2021/05/28 04:59:26;;;;;;;5.85;2.22;;;;;;;;;;4878945;29;20109;-85
2021/05/28 05:01:52;;;;;;;6.10;2.20;;;;;;;;;;4879084;29;20029;-83
2021/05/28 05:04:18;;;;;;;6.50;2.70;;;;;;;;;;4878601;29;20032;-81
2021/05/28 05:06:44;;;;;;;6.38;2.40;;;;;;;;;;4878800;29;20021;-83
2021/05/28 05:09:10;;;;;;;5.03;2.22;;;;;;;;;;4877817;29;20057;-78
2021/05/28 05:11:36;;;;;;;6.60;2.35;;;;;;;;;;4861749;29;20136;-82
2021/05/28 05:14:02;;;;;;;6.75;2.67;;;;;;;;;;4878276;29;20097;-82
2021/05/28 05:16:28;;;;;;;5.35;2.75;;;;;;;;;;4878432;29;20055;-79
2021/05/28 05:18:54;;;;;;;6.63;3.33;;;;;;;;;;4878285;29;20040;-81
2021/05/28 05:21:20;;;;;;;7.10;3.60;;;;;;;;;;4878129;29;20367;-79
2021/05/28 05:23:46;;;;;;;10.07;3.08;;;;;;;;;;4877820;29;20470;-81
2021/05/28 05:26:12;;;;;;;7.93;2.90;;;;;;;;;;4878162;29;20041;-80
2021/05/28 05:28:38;;;;;;;6.10;2.58;;;;;;;;;;4878135;29;20021;-65
2021/05/28 05:31:05;;;;;;;9.32;2.90;;;;;;;;;;4878035;29;20044;-62
2021/05/28 05:33:31;;;;;;;6.60;2.42;;;;;;;;;;4876323;29;20045;-70
2021/05/28 05:35:57;;;;;;;5.70;2.08;;;;;;;;;;4867677;29;20017;-75
2021/05/28 05:38:23;;;;;;;4.93;2.30;;;;;;;;;;4869211;29;20032;-72
2021/05/28 05:40:49;;;;;;;4.60;1.83;;;;;;;;;;4859496;29;20067;-74
2021/05/28 05:43:15;;;;;;;6.55;2.08;;;;;;;;;;4871451;29;20129;-64
2021/05/28 05:45:42;;;;;;;5.65;2.00;;;;;;;;;;4859227;29;20033;-68
2021/05/28 05:48:09;;;;;;;8.05;2.15;;;;;;;;;;4858996;29;20029;-68
2021/05/28 05:50:35;;;;;;;6.55;2.33;;;;;;;;;;4858885;29;20026;-75
2021/05/28 05:53:01;;;;;;;5.40;2.20;;;;;;;;;;4859296;29;20053;-75
2021/05/28 05:55:27;;;;;;;4.13;2.03;;;;;;;;;;4872401;29;20060;-71
2021/05/28 05:57:53;;;;;;;3.63;1.50;;;;;;;;;;4876696;29;20077;-72
2021/05/28 06:00:19;;;;;;;5.18;1.75;;;;;;;;;;4876533;29;20068;-74
2021/05/28 06:02:45;;;;;;;4.68;1.70;;;;;;;;;;4876526;29;20425;-70
2021/05/28 06:05:12;;;;;;;3.15;1.70;;;;;;;;;;4876333;29;20021;-64
2021/05/28 06:07:38;;;;;;;3.08;1.55;;;;;;;;;;4876217;29;20116;-74
2021/05/28 06:10:05;;;;;;;7.07;1.75;;;;;;;;;;4873494;29;20025;-73
2021/05/28 06:12:31;;;;;;;15.63;2.30;;;;;;;;;;4876187;29;20037;-68
2021/05/28 06:14:57;;;;;;;6.10;1.50;;;;;;;;;;4876363;29;20073;-72
2021/05/28 06:17:23;;;;;;;5.05;1.90;;;;;;;;;;4859192;29;20036;-71
2021/05/28 06:19:49;;;;;;;9.23;1.80;;;;;;;;;;4877115;29;20024;-72
2021/05/28 06:22:21;;;;;;;5.03;2.38;;;;;;;;;;4876088;29;20029;-72
2021/05/28 06:24:47;;;;;;;3.57;1.77;;;;;;;;;;4875804;29;20101;-72
2021/05/28 06:27:13;;;;;;;4.57;1.50;;;;;;;;;;4876259;29;20047;-74
2021/05/28 06:29:39;;;;;;;17.25;3.38;;;;;;;;;;4875891;29;20045;-74
2021/05/28 06:32:05;;;;;;;28.13;4.18;;;;;;;;;;4875812;29;20044;-74
2021/05/28 06:34:31;;;;;;;19.58;4.28;;;;;;;;;;4876378;29;20387;-73
2021/05/28 06:36:58;;;;;;;9.25;2.17;;;;;;;;;;4876102;29;20120;-70
2021/05/28 06:39:24;;;;;;;12.65;2.55;;;;;;;;;;4862484;29;20124;-70
2021/05/28 06:41:50;;;;;;;6.35;1.83;;;;;;;;;;4876068;29;20077;-71
2021/05/28 06:44:16;;;;;;;14.88;4.43;;;;;;;;;;4871803;29;20037;-70
2021/05/28 06:46:42;;;;;;;12.75;3.30;;;;;;;;;;4875731;29;20071;-77
2021/05/28 06:49:08;;;;;;;8.75;3.05;;;;;;;;;;4876021;29;20053;-76
2021/05/28 06:51:35;;;;;;;19.67;2.72;;;;;;;;;;4876175;29;20041;-79
2021/05/28 06:54:01;;;;;;;20.65;2.72;;;;;;;;;;4875884;29;20065;-75
2021/05/28 06:56:27;;;;;;;13.23;2.35;;;;;;;;;;4876225;29;20060;-68
2021/05/28 06:58:53;;;;;;;14.40;2.55;;;;;;;;;;4877153;29;20033;-80
2021/05/28 07:01:21;;;;;;;6.50;1.70;;;;;;;;;;4860273;29;20037;-81
2021/05/28 07:03:47;;;;;;;5.85;1.67;;;;;;;;;;4876718;29;20089;-69
2021/05/28 07:06:13;;;;;;;6.00;1.75;;;;;;;;;;4876863;29;20021;-78
2021/05/28 07:08:39;;;;;;;6.38;1.67;;;;;;;;;;4876935;29;20029;-71
2021/05/28 07:11:07;;;;;;;3.67;1.65;;;;;;;;;;4877129;29;20414;-78
2021/05/28 07:13:33;;;;;;;4.80;1.58;;;;;;;;;;4876768;29;20032;-75
2021/05/28 07:15:59;;;;;;;6.22;1.40;;;;;;;;;;4876540;29;20121;-75
2021/05/28 07:18:25;;;;;;;17.42;2.05;;;;;;;;;;4877174;29;20037;-63
2021/05/28 07:20:51;;;;;;;4.07;1.70;;;;;;;;;;4876489;29;20037;-68
2021/05/28 07:23:19;;;;;;;3.28;1.60;;;;;;;;;;4876704;29;20069;-69
2021/05/28 07:25:46;;;;;;;6.70;2.13;;;;;;;;;;4875767;29;20057;-65
2021/05/28 07:28:12;;;;;;;7.45;1.60;;;;;;;;;;4876082;29;20144;-65
2021/05/28 07:30:38;;;;;;;3.58;1.48;;;;;;;;;;4876912;29;20077;-74
2021/05/28 07:33:05;;;;;;;4.63;1.88;;;;;;;;;;4877990;29;20507;-71
2021/05/28 07:35:31;;;;;;;3.90;1.60;;;;;;;;;;4880010;29;20033;-68
2021/05/28 07:37:57;;;;;;;5.32;2.25;;;;;;;;;;4879406;29;20111;-70
2021/05/28 07:40:23;;;;;;;3.50;1.58;;;;;;;;;;4880221;29;20108;-72
2021/05/28 07:42:49;;;;;;;9.38;2.45;;;;;;;;;;4880014;29;20053;-72
2021/05/28 07:45:15;;;;;;;3.97;1.60;;;;;;;;;;4879788;29;20025;-72
2021/05/28 07:47:42;;;;;;;4.65;1.70;;;;;;;;;;4879162;29;20167;-61
2021/05/28 07:50:08;;;;;;;8.65;2.40;;;;;;;;;;4879489;29;20108;-69
2021/05/28 07:52:35;;;;;;;4.80;1.83;;;;;;;;;;4879763;29;20109;-69
2021/05/28 07:55:01;;;;;;;5.72;2.10;;;;;;;;;;4879427;29;20469;-69
2021/05/28 07:57:27;;;;;;;3.17;1.50;;;;;;;;;;4879440;29;20040;-70
2021/05/28 07:59:53;;;;;;;3.47;1.80;;;;;;;;;;4862969;29;20625;-70
2021/05/28 08:02:19;;;;;;;3.90;1.70;;;;;;;;;;4879657;29;20032;-69
2021/05/28 08:04:46;;;;;;;3.03;1.88;;;;;;;;;;4879455;29;20530;-68
2021/05/28 08:07:12;;;;;;;5.38;1.70;;;;;;;;;;4879240;29;20037;-70
2021/05/28 08:09:38;;;;;;;4.07;1.80;;;;;;;;;;4879117;29;20025;-70
2021/05/28 08:12:04;;;;;;;5.47;2.10;;;;;;;;;;4879476;29;20629;-70
2021/05/28 08:14:30;;;;;;;4.80;1.77;;;;;;;;;;4879192;29;20029;-70
2021/05/28 08:16:56;;;;;;;4.85;1.85;;;;;;;;;;4879195;29;20033;-71
2021/05/28 08:19:22;;;;;;;5.63;1.70;;;;;;;;;;4878907;29;20029;-71
2021/05/28 08:21:49;;;;;;;3.67;1.85;;;;;;;;;;4878996;29;20092;-69
2021/05/28 08:24:16;;;;;;;4.63;2.00;;;;;;;;;;4878525;29;20049;-70
2021/05/28 08:26:42;;;;;;;8.80;2.60;;;;;;;;;;4878895;29;20088;-70
2021/05/28 08:29:08;;;;;;;5.03;1.92;;;;;;;;;;4879181;29;20056;-69
2021/05/28 08:31:34;;;;;;;5.55;2.20;;;;;;;;;;4879136;29;20025;-70
2021/05/28 08:34:01;;;;;;;7.25;2.40;;;;;;;;;;4878385;29;20047;-69
2021/05/28 08:36:27;;;;;;;9.55;2.72;;;;;;;;;;4878820;29;20154;-69
2021/05/28 08:38:53;;;;;;;9.10;2.00;;;;;;;;;;4878653;29;20033;-70
2021/05/28 08:41:19;;;;;;;7.97;1.98;;;;;;;;;;4879273;29;20021;-70
2021/05/28 08:43:45;;;;;;;6.20;2.17;;;;;;;;;;4878202;29;20029;-70
2021/05/28 08:46:15;;;;;;;6.10;2.30;;;;;;;;;;4878049;29;20040;-69
2021/05/28 08:48:41;;;;;;;12.73;2.63;;;;;;;;;;4878639;29;20120;-70
2021/05/28 08:51:07;;;;;;;7.50;1.95;;;;;;;;;;4878595;29;20160;-74
2021/05/28 08:53:33;;;;;;;7.32;2.78;;;;;;;;;;4878586;29;20161;-71
2021/05/28 08:56:00;;;;;;;7.80;2.20;;;;;;;;;;4878748;29;20104;-74
2021/05/28 08:58:27;;;;;;;8.52;2.30;;;;;;;;;;4878326;29;20093;-71
2021/05/28 09:00:53;;;;;;;5.30;2.25;;;;;;;;;;4878149;29;20017;-74
2021/05/28 09:03:22;;;;;;;8.65;2.53;;;;;;;;;;4878525;29;20088;-73
2021/05/28 09:05:49;;;;;;;8.40;2.25;;;;;;;;;;4878427;29;20025;-73
2021/05/28 09:08:24;;;;;;;4.50;2.10;;;;;;;;;;4878168;29;20036;-70
2021/05/28 09:10:50;;;;;;;6.93;2.50;;;;;;;;;;4873828;29;20044;-69
2021/05/28 09:13:18;;;;;;;5.70;2.47;;;;;;;;;;4859323;29;20037;-77
2021/05/28 09:15:45;;;;;;;10.07;3.08;;;;;;;;;;4859820;29;20451;-65
2021/05/28 09:18:12;;;;;;;7.43;2.63;;;;;;;;;;4859602;29;20034;-63
2021/05/28 09:20:38;;;;;;;3.88;2.20;;;;;;;;;;4859481;29;20044;-67
2021/05/28 09:23:10;;;;;;;4.32;2.20;;;;;;;;;;4859463;29;20112;-67
2021/05/28 09:25:51;;;;;;;6.63;2.78;;;;;;;;;;4859018;29;20054;-66
2021/05/28 09:28:18;;;;;;;9.50;2.40;;;;;;;;;;4859145;29;20133;-62
2021/05/28 09:30:44;;;;;;;7.40;2.58;;;;;;;;;;4859554;29;20032;-76
2021/05/28 09:33:19;;;;;;;5.88;2.03;;;;;;;;;;4859471;29;20124;-72
2021/05/28 09:35:45;;;;;;;5.43;2.08;;;;;;;;;;4859353;29;20474;-71
2021/05/28 09:38:19;;;;;;;4.60;2.08;;;;;;;;;;4859463;29;20034;-66
2021/05/28 09:40:46;;;;;;;14.35;2.50;;;;;;;;;;4859562;29;20104;-72
2021/05/28 09:43:14;;;;;;;5.50;1.95;;;;;;;;;;4843071;29;20405;-70
2021/05/28 09:45:41;;;;;;;5.72;2.38;;;;;;;;;;4858641;29;20090;-62
2021/05/28 09:48:16;;;;;;;4.35;1.80;;;;;;;;;;4876421;29;20116;-62
2021/05/28 09:50:46;;;;;;;5.13;2.35;;;;;;;;;;4877455;29;20060;-70
2021/05/28 09:53:27;;;;;;;4.97;2.10;;;;;;;;;;4877287;29;20041;-70
2021/05/28 09:55:53;;;;;;;5.38;2.00;;;;;;;;;;4877092;29;20033;-71
2021/05/28 09:58:19;;;;;;;4.63;1.90;;;;;;;;;;4877494;29;20165;-66
2021/05/28 10:00:45;;;;;;;7.95;2.30;;;;;;;;;;4877179;29;20040;-64
2021/05/28 10:03:12;;;;;;;4.65;2.35;;;;;;;;;;4872698;29;20081;-63
2021/05/28 10:05:38;;;;;;;5.55;2.90;;;;;;;;;;4868852;29;20645;-69
2021/05/28 10:08:08;;;;;;;6.05;2.80;;;;;;;;;;4876415;29;20036;-66
2021/05/28 10:10:36;;;;;;;6.95;2.53;;;;;;;;;;4876204;29;20568;-70
2021/05/28 10:13:10;;;;;;;11.55;2.70;;;;;;;;;;4874717;29;20055;-70
2021/05/28 10:15:36;;;;;;;7.05;2.60;;;;;;;;;;4877143;29;20481;-70
2021/05/28 10:18:03;;;;;;;4.25;2.45;;;;;;;;;;4875983;29;20029;-66
2021/05/28 10:20:29;;;;;;;6.03;2.40;;;;;;;;;;4875354;29;20029;-68
2021/05/28 10:22:55;;;;;;;7.30;2.40;;;;;;;;;;4877011;29;20070;-66
2021/05/28 10:25:23;;;;;;;6.25;2.70;;;;;;;;;;4858486;29;20079;-69
2021/05/28 10:27:57;;;;;;;6.70;2.40;;;;;;;;;;4840750;29;20037;-66
2021/05/28 10:30:29;;;;;;;3.88;2.40;;;;;;;;;;4858984;29;20093;-69
2021/05/28 10:33:24;;;;;;;4.83;2.03;;;;;;;;;;4873934;29;20044;-61
2021/05/28 10:35:57;;;;;;;7.80;2.38;;;;;;;;;;4851478;29;20069;-72
2021/05/28 10:38:42;;;;;;;4.28;2.53;;;;;;;;;;4857014;29;20124;-70
2021/05/28 10:41:08;;;;;;;4.78;1.83;;;;;;;;;;4877134;29;20032;-73
2021/05/28 10:43:34;;;;;;;7.63;1.98;;;;;;;;;;4875131;29;20025;-73
2021/05/28 10:46:04;;;;;;;4.72;2.30;;;;;;;;;;4876664;29;20033;-71
2021/05/28 10:48:41;;;;;;;6.95;2.65;;;;;;;;;;4876307;29;20096;-69
2021/05/28 10:51:13;;;;;;;7.22;2.50;;;;;;;;;;4874444;29;20025;-73
2021/05/28 10:53:39;;;;;;;;;;;;;;;;;;4876879;29;20068;-70
2021/05/28 10:56:14;;;;;;;4.22;2.30;;;;;;;;;;4876549;29;19924;-72
2021/05/28 10:58:52;;;;;;;5.63;2.70;;;;;;;;;;4874026;29;20111;-68
2021/05/28 11:01:33;;;;;;;5.05;2.08;;;;;;;;;;4875170;29;20039;-68
2021/05/28 11:04:00;;;;;;;3.85;2.20;;;;;;;;;;4873558;29;20028;-71
2021/05/28 11:06:26;;;;;;;5.20;2.47;;;;;;;;;;4876414;29;20033;-70
2021/05/28 11:08:57;;;;;;;7.40;2.90;;;;;;;;;;4879676;29;20108;-73
2021/05/28 11:11:43;;;;;;;3.63;2.38;;;;;;;;;;4880765;29;20064;-70
2021/05/28 11:14:10;;;;;;;6.03;2.40;;;;;;;;;;4870675;29;20093;-70
2021/05/28 11:16:55;;;;;;;5.82;2.83;;;;;;;;;;4861677;29;20040;-71
2021/05/28 11:19:25;;;;;;;5.28;2.13;;;;;;;;;;4862024;29;20116;-71
2021/05/28 11:21:54;;;;;;;5.50;2.33;;;;;;;;;;4858363;29;20033;-71
2021/05/28 11:24:20;;;;;;;4.68;2.75;;;;;;;;;;4870917;29;20140;-72
2021/05/28 11:26:47;;;;;;;4.63;2.60;;;;;;;;;;4889626;29;20039;-73
2021/05/28 11:29:20;;;;;;;7.20;2.63;;;;;;;;;;4893531;29;20028;-73
2021/05/28 11:31:46;;;;;;;6.32;2.80;;;;;;;;;;4898506;29;20119;-73
2021/05/28 11:34:12;;;;;;;3.80;2.35;;;;;;;;;;4897106;29;20070;-72
2021/05/28 11:36:41;;;;;;;5.88;2.50;;;;;;;;;;4897348;29;20032;-70
2021/05/28 11:39:21;;;;;;;4.00;2.50;;;;;;;;;;4895076;29;20107;-73
2021/05/28 11:41:51;;;;;;;6.07;2.60;;;;;;;;;;4895750;29;20540;-74
2021/05/28 11:44:19;;;;;;;3.53;1.80;;;;;;;;;;4897977;29;20036;-71
2021/05/28 11:46:46;;;;;;;5.28;2.30;;;;;;;;;;4895023;29;20027;-69
2021/05/28 11:49:13;;;;;;;5.65;2.17;;;;;;;;;;4897990;29;20031;-73
2021/05/28 11:51:39;;;;;;;5.97;2.28;;;;;;;;;;4896058;29;20024;-61
2021/05/28 11:54:25;;;;;;;3.28;2.10;;;;;;;;;;4869887;29;20025;-69
2021/05/28 11:57:04;;;;;;;4.45;2.20;;;;;;;;;;4893299;29;20040;-69
2021/05/28 11:59:52;;;;;;;4.95;2.17;;;;;;;;;;4891973;29;20036;-67
2021/05/28 12:02:38;;;;;;;5.40;2.55;;;;;;;;;;4884276;29;20188;-61
2021/05/28 12:05:05;;;;;;;5.45;2.17;;;;;;;;;;4887935;29;20048;-62
2021/05/28 12:07:32;;;;;;;7.97;2.03;;;;;;;;;;4896681;29;20536;-65
2021/05/28 12:10:03;;;;;;;6.20;2.20;;;;;;;;;;4897106;29;20063;-65
2021/05/28 12:12:48;;;;;;;5.43;2.17;;;;;;;;;;4894019;29;20111;-70
2021/05/28 12:15:15;;;;;;;4.60;2.15;;;;;;;;;;4894693;29;20024;-63
2021/05/28 12:17:41;;;;;;;7.00;2.15;;;;;;;;;;4896526;29;20032;-75
2021/05/28 12:20:36;;;;;;;9.50;2.58;;;;;;;;;;4896376;29;20025;-74
2021/05/28 12:23:09;;;;;;;27.35;6.03;;;;;;;;;;4819171;29;20054;-72
2021/05/28 12:25:43;;;;;;;10.55;3.42;;;;;;;;;;4819468;29;20520;-71
2021/05/28 12:28:11;;;;;;;22.65;5.50;;;;;;;;;;4817449;29;20044;-71
2021/05/28 12:30:37;;;;;;;7.50;2.95;;;;;;;;;;4820092;29;20029;-70
2021/05/28 12:33:03;;;;;;;8.38;3.15;;;;;;;;;;4812129;29;20117;-64
2021/05/28 12:35:30;;;;;;;22.20;5.32;;;;;;;;;;4815186;29;20593;-69
2021/05/28 12:38:06;;;;;;;8.57;2.35;;;;;;;;;;4812119;29;20039;-69
2021/05/28 12:40:34;;;;;;;6.63;2.10;;;;;;;;;;4820339;29;20050;-69
2021/05/28 12:43:00;;;;;;;16.00;3.20;;;;;;;;;;4805427;29;20433;-67
2021/05/28 12:45:33;;;;;;;8.82;2.00;;;;;;;;;;4820343;29;20057;-70
2021/05/28 12:48:00;;;;;;;7.57;2.50;;;;;;;;;;4820461;29;20066;-70
2021/05/28 12:50:33;;;;;;;9.57;2.33;;;;;;;;;;4820328;29;20090;-64
2021/05/28 12:53:00;;;;;;;7.30;1.98;;;;;;;;;;4820688;29;20129;-66
2021/05/28 12:55:31;;;;;;;7.32;1.80;;;;;;;;;;4820659;29;20084;-71
2021/05/28 12:57:57;;;;;;;9.57;2.42;;;;;;;;;;4820703;29;20113;-62
2021/05/28 13:00:33;;;;;;;5.57;1.67;;;;;;;;;;4872203;29;20152;-71
2021/05/28 13:02:59;;;;;;;3.63;1.55;;;;;;;;;;4877466;29;20025;-68
2021/05/28 13:05:33;;;;;;;7.43;1.65;;;;;;;;;;4877681;29;20047;-67
2021/05/28 13:08:00;;;;;;;4.15;1.90;;;;;;;;;;4877557;29;20028;-68
2021/05/28 13:10:26;;;;;;;3.53;1.77;;;;;;;;;;4876460;29;20029;-71
2021/05/28 13:12:53;;;;;;;2.85;1.33;;;;;;;;;;4877663;29;20037;-72
2021/05/28 13:15:29;;;;;;;4.30;1.90;;;;;;;;;;4877619;29;20564;-68
2021/05/28 13:17:56;;;;;;;5.93;1.50;;;;;;;;;;4877527;29;20123;-70
2021/05/28 13:20:25;;;;;;;2.38;1.17;;;;;;;;;;4877063;29;20100;-66
2021/05/28 13:22:52;;;;;;;3.63;1.65;;;;;;;;;;4877134;29;20050;-65
2021/05/28 13:25:27;;;;;;;5.72;1.63;;;;;;;;;;4876241;29;20080;-64
2021/05/28 13:28:02;;;;;;;1.85;1.17;;;;;;;;;;4877233;29;20466;-68
2021/05/28 13:30:39;;;;;;;2.85;1.30;;;;;;;;;;4858519;29;20057;-66
2021/05/28 13:33:17;;;;;;;3.28;1.60;;;;;;;;;;4858652;29;20037;-70
2021/05/28 13:35:44;;;;;;;2.85;1.30;;;;;;;;;;4858682;29;20034;-68
2021/05/28 13:38:10;;;;;;;3.88;1.25;;;;;;;;;;4858462;29;20021;-62
2021/05/28 13:40:36;;;;;;;4.93;1.50;;;;;;;;;;4858599;29;20051;-68
2021/05/28 13:43:03;;;;;;;3.53;1.50;;;;;;;;;;4858434;29;20509;-70
2021/05/28 13:45:29;;;;;;;2.25;1.42;;;;;;;;;;4858690;29;20029;-69
2021/05/28 13:47:55;;;;;;;5.75;1.90;;;;;;;;;;4858266;29;20040;-67
2021/05/28 13:50:23;;;;;;;3.08;1.40;;;;;;;;;;4858227;29;20025;-72
2021/05/28 13:52:49;;;;;;;3.25;1.20;;;;;;;;;;4858253;29;20041;-71
2021/05/28 13:55:16;;;;;;;2.83;1.50;;;;;;;;;;4858486;29;20033;-70
2021/05/28 13:57:43;;;;;;;4.75;1.60;;;;;;;;;;4858276;29;20049;-63
2021/05/28 14:00:09;;;;;;;4.75;1.42;;;;;;;;;;4863268;29;20044;-70
2021/05/28 14:02:37;;;;;;;5.72;2.08;;;;;;;;;;4874800;29;20048;-71
2021/05/28 14:05:03;;;;;;;3.92;2.05;;;;;;;;;;4876368;29;20022;-66
2021/05/28 14:07:29;;;;;;;5.55;1.83;;;;;;;;;;4874818;29;20041;-62
2021/05/28 14:09:55;;;;;;;4.82;1.40;;;;;;;;;;4857453;29;20117;-63
2021/05/28 14:12:23;;;;;;;5.68;1.52;;;;;;;;;;4876333;29;20025;-72
2021/05/28 14:14:49;;;;;;;9.48;3.33;;;;;;;;;;4876205;29;20041;-71
2021/05/28 14:17:17;;;;;;;13.88;2.70;;;;;;;;;;4874588;29;20025;-66
2021/05/28 14:19:43;;;;;;;4.47;1.50;;;;;;;;;;4867985;29;20029;-67
2021/05/28 14:22:09;;;;;;;15.52;4.82;;;;;;;;;;4867036;29;20021;-70
2021/05/28 14:24:35;;;;;;;18.58;4.53;;;;;;;;;;4873173;29;20056;-69
2021/05/28 14:27:01;;;;;;;15.05;3.55;;;;;;;;;;4883744;29;20378;-69
2021/05/28 14:29:27;;;;;;;9.00;3.00;;;;;;;;;;4884552;29;20366;-70
2021/05/28 14:31:53;;;;;;;6.93;1.77;;;;;;;;;;4885501;29;20036;-71
2021/05/28 14:34:19;;;;;;;3.00;1.30;;;;;;;;;;4885807;29;20557;-69
2021/05/28 14:36:46;;;;;;;7.95;1.70;;;;;;;;;;4884150;29;20419;-71
2021/05/28 14:39:12;;;;;;;5.82;1.65;;;;;;;;;;4884679;29;20100;-74
2021/05/28 14:41:39;;;;;;;3.50;1.65;;;;;;;;;;4885908;29;20025;-65
2021/05/28 14:44:06;;;;;;;2.88;1.33;;;;;;;;;;4886440;29;20024;-71
2021/05/28 14:46:32;;;;;;;4.38;1.38;;;;;;;;;;4889391;29;20599;-66
2021/05/28 14:48:58;;;;;;;6.55;1.65;;;;;;;;;;4887553;29;20037;-72